Lincoln, New Mexico
Current Conditions -  °F | °C
As of 5:03 AM on Thursday 23 Oct 2014 (Local Time) from KROW Reporting Station
Haze Haze  
Wind Chill: 58°   Ceiling: 200
Heat Index: 58°   Visibility: 4mi
Dew Point: 57°   Wind: 6mph
Humidity: 97%   Direction: 140°SE
Pressure: 30.12"   Gusts: NA
Location:  33.49°N, 105.39°W
Report Text: KROW 231103Z AUTO 14005KT 4SM BR OVC002 14/14 A3012 RMK AO2 T01440139
Loading
Personal Weather Stations






























Interactive Weather Map
Tropical Storm Tracking
New forecast layout! Learn more

10-Day Weather Forecast

Advertisements
Track Severe Weather on mobile